Boshof, South Africa
Current Conditions -  °F | °C
As of 6:00 AM on Wednesday 28 Jan 2015 (Local Time) from FABL Reporting Station
Clear Clear  
Wind Chill: 57°   Ceiling: Unl
Heat Index: 57°   Visibility: 6mi
Dew Point: 54°   Wind: 3mph
Humidity: 88%   Direction: 180°S
Pressure: 30.06"   Gusts: NA
Location:  28.54°S, 25.24°E
Report Text: FABL 280400Z 18003KT CAVOK 14/12 Q1018 NOSIG
Loading
Personal Weather Stations






























Interactive Weather Map New forecast layout! Learn more

10-Day Weather Forecast

Advertisements
Track Severe Weather on mobile